sensor_id;sensor_type;location;lat;lon;timestamp;P1;durP1;ratioP1;P2;durP2;ratioP2
20449;SDS011;10384;51.940;8.432;2024-01-15T00:00:43;22.97;;;7.20;;
20449;SDS011;10384;51.940;8.432;2024-01-15T00:03:09;22.37;;;7.00;;
20449;SDS011;10384;51.940;8.432;2024-01-15T00:05:35;23.30;;;7.77;;
20449;SDS011;10384;51.940;8.432;2024-01-15T00:08:01;24.43;;;7.57;;
20449;SDS011;10384;51.940;8.432;2024-01-15T00:10:27;19.87;;;6.90;;
20449;SDS011;10384;51.940;8.432;2024-01-15T00:12:53;21.70;;;6.73;;
20449;SDS011;10384;51.940;8.432;2024-01-15T00:15:19;21.63;;;6.77;;
20449;SDS011;10384;51.940;8.432;2024-01-15T00:17:45;21.00;;;7.40;;
20449;SDS011;10384;51.940;8.432;2024-01-15T00:20:11;20.60;;;7.70;;
20449;SDS011;10384;51.940;8.432;2024-01-15T00:22:37;20.43;;;7.13;;
20449;SDS011;10384;51.940;8.432;2024-01-15T00:25:03;17.17;;;6.13;;
20449;SDS011;10384;51.940;8.432;2024-01-15T00:27:29;20.90;;;7.47;;
20449;SDS011;10384;51.940;8.432;2024-01-15T00:29:55;18.47;;;6.53;;
20449;SDS011;10384;51.940;8.432;2024-01-15T00:32:21;22.37;;;7.33;;
20449;SDS011;10384;51.940;8.432;2024-01-15T00:34:47;14.67;;;6.37;;
20449;SDS011;10384;51.940;8.432;2024-01-15T00:37:13;15.40;;;6.00;;
20449;SDS011;10384;51.940;8.432;2024-01-15T00:39:39;20.33;;;7.20;;
20449;SDS011;10384;51.940;8.432;2024-01-15T00:42:05;14.73;;;5.63;;
20449;SDS011;10384;51.940;8.432;2024-01-15T00:44:31;15.40;;;5.70;;
20449;SDS011;10384;51.940;8.432;2024-01-15T00:46:57;14.20;;;5.40;;
20449;SDS011;10384;51.940;8.432;2024-01-15T00:49:23;15.00;;;5.60;;
20449;SDS011;10384;51.940;8.432;2024-01-15T00:51:49;13.73;;;5.23;;
20449;SDS011;10384;51.940;8.432;2024-01-15T00:54:16;14.17;;;4.97;;
20449;SDS011;10384;51.940;8.432;2024-01-15T00:56:42;13.87;;;5.30;;
20449;SDS011;10384;51.940;8.432;2024-01-15T00:59:08;16.70;;;5.33;;
20449;SDS011;10384;51.940;8.432;2024-01-15T01:01:35;11.83;;;4.50;;
20449;SDS011;10384;51.940;8.432;2024-01-15T01:04:02;12.50;;;4.70;;
20449;SDS011;10384;51.940;8.432;2024-01-15T01:06:28;14.43;;;5.00;;
20449;SDS011;10384;51.940;8.432;2024-01-15T01:08:54;11.40;;;4.57;;
20449;SDS011;10384;51.940;8.432;2024-01-15T01:11:20;18.10;;;4.70;;
20449;SDS011;10384;51.940;8.432;2024-01-15T01:13:46;13.97;;;4.80;;
20449;SDS011;10384;51.940;8.432;2024-01-15T01:16:12;12.00;;;4.60;;
20449;SDS011;10384;51.940;8.432;2024-01-15T01:18:38;11.87;;;4.83;;
20449;SDS011;10384;51.940;8.432;2024-01-15T01:21:04;13.00;;;4.80;;
20449;SDS011;10384;51.940;8.432;2024-01-15T01:23:30;12.97;;;4.83;;
20449;SDS011;10384;51.940;8.432;2024-01-15T01:25:56;9.73;;;4.47;;
20449;SDS011;10384;51.940;8.432;2024-01-15T01:28:22;13.03;;;4.80;;
20449;SDS011;10384;51.940;8.432;2024-01-15T01:30:48;15.13;;;5.10;;
20449;SDS011;10384;51.940;8.432;2024-01-15T01:33:14;10.20;;;4.40;;
20449;SDS011;10384;51.940;8.432;2024-01-15T01:35:40;9.87;;;4.57;;
20449;SDS011;10384;51.940;8.432;2024-01-15T01:38:06;14.30;;;4.87;;
20449;SDS011;10384;51.940;8.432;2024-01-15T01:40:32;13.27;;;4.83;;
20449;SDS011;10384;51.940;8.432;2024-01-15T01:42:58;13.97;;;4.90;;
20449;SDS011;10384;51.940;8.432;2024-01-15T01:45:24;14.23;;;5.10;;
20449;SDS011;10384;51.940;8.432;2024-01-15T01:47:50;16.07;;;4.67;;
20449;SDS011;10384;51.940;8.432;2024-01-15T01:50:16;15.00;;;4.90;;
20449;SDS011;10384;51.940;8.432;2024-01-15T01:52:42;18.43;;;5.00;;
20449;SDS011;10384;51.940;8.432;2024-01-15T01:55:08;15.90;;;5.57;;
20449;SDS011;10384;51.940;8.432;2024-01-15T01:57:35;13.67;;;5.10;;
20449;SDS011;10384;51.940;8.432;2024-01-15T02:00:02;18.57;;;4.80;;
20449;SDS011;10384;51.940;8.432;2024-01-15T02:02:29;15.47;;;5.20;;
20449;SDS011;10384;51.940;8.432;2024-01-15T02:04:55;13.13;;;5.30;;
20449;SDS011;10384;51.940;8.432;2024-01-15T02:07:21;18.37;;;5.17;;
20449;SDS011;10384;51.940;8.432;2024-01-15T02:09:47;15.50;;;5.13;;
20449;SDS011;10384;51.940;8.432;2024-01-15T02:12:13;20.80;;;5.33;;
20449;SDS011;10384;51.940;8.432;2024-01-15T02:14:39;15.10;;;5.47;;
20449;SDS011;10384;51.940;8.432;2024-01-15T02:17:05;14.07;;;4.90;;
20449;SDS011;10384;51.940;8.432;2024-01-15T02:19:31;13.60;;;4.93;;
20449;SDS011;10384;51.940;8.432;2024-01-15T02:21:57;15.00;;;5.57;;
20449;SDS011;10384;51.940;8.432;2024-01-15T02:24:23;16.20;;;5.17;;
20449;SDS011;10384;51.940;8.432;2024-01-15T02:26:49;15.37;;;5.17;;
20449;SDS011;10384;51.940;8.432;2024-01-15T02:29:15;15.27;;;5.33;;
20449;SDS011;10384;51.940;8.432;2024-01-15T02:31:41;15.13;;;4.83;;
20449;SDS011;10384;51.940;8.432;2024-01-15T02:34:07;11.63;;;4.67;;
20449;SDS011;10384;51.940;8.432;2024-01-15T02:36:33;13.83;;;4.87;;
20449;SDS011;10384;51.940;8.432;2024-01-15T02:38:59;17.03;;;5.30;;
20449;SDS011;10384;51.940;8.432;2024-01-15T02:41:25;16.53;;;4.83;;
20449;SDS011;10384;51.940;8.432;2024-01-15T02:43:51;16.13;;;5.37;;
20449;SDS011;10384;51.940;8.432;2024-01-15T02:46:17;19.30;;;4.83;;
20449;SDS011;10384;51.940;8.432;2024-01-15T02:48:43;14.20;;;4.93;;
20449;SDS011;10384;51.940;8.432;2024-01-15T02:51:09;12.73;;;5.03;;
20449;SDS011;10384;51.940;8.432;2024-01-15T02:53:35;13.00;;;4.83;;
20449;SDS011;10384;51.940;8.432;2024-01-15T02:56:02;15.77;;;5.50;;
20449;SDS011;10384;51.940;8.432;2024-01-15T02:58:28;11.90;;;4.53;;
20449;SDS011;10384;51.940;8.432;2024-01-15T03:00:54;16.57;;;5.10;;
20449;SDS011;10384;51.940;8.432;2024-01-15T03:03:20;14.40;;;5.53;;
20449;SDS011;10384;51.940;8.432;2024-01-15T03:05:46;13.23;;;4.70;;
20449;SDS011;10384;51.940;8.432;2024-01-15T03:08:12;15.87;;;5.20;;
20449;SDS011;10384;51.940;8.432;2024-01-15T03:10:38;18.43;;;5.00;;
20449;SDS011;10384;51.940;8.432;2024-01-15T03:13:04;15.17;;;4.73;;
20449;SDS011;10384;51.940;8.432;2024-01-15T03:15:30;13.10;;;4.73;;
20449;SDS011;10384;51.940;8.432;2024-01-15T03:17:56;17.10;;;4.97;;
20449;SDS011;10384;51.940;8.432;2024-01-15T03:20:22;14.03;;;4.17;;
20449;SDS011;10384;51.940;8.432;2024-01-15T03:22:48;16.63;;;4.67;;
20449;SDS011;10384;51.940;8.432;2024-01-15T03:25:14;18.57;;;4.87;;
20449;SDS011;10384;51.940;8.432;2024-01-15T03:27:40;14.90;;;4.83;;
20449;SDS011;10384;51.940;8.432;2024-01-15T03:30:06;14.67;;;5.17;;
20449;SDS011;10384;51.940;8.432;2024-01-15T03:32:32;12.53;;;4.47;;
20449;SDS011;10384;51.940;8.432;2024-01-15T03:34:58;14.33;;;4.70;;
20449;SDS011;10384;51.940;8.432;2024-01-15T03:37:25;21.87;;;5.47;;
20449;SDS011;10384;51.940;8.432;2024-01-15T03:39:51;13.07;;;5.27;;
20449;SDS011;10384;51.940;8.432;2024-01-15T03:42:17;15.57;;;4.67;;
20449;SDS011;10384;51.940;8.432;2024-01-15T03:44:43;12.17;;;5.17;;
20449;SDS011;10384;51.940;8.432;2024-01-15T03:47:09;15.03;;;4.50;;
20449;SDS011;10384;51.940;8.432;2024-01-15T03:49:35;15.77;;;4.87;;
20449;SDS011;10384;51.940;8.432;2024-01-15T03:52:01;16.07;;;4.37;;
20449;SDS011;10384;51.940;8.432;2024-01-15T03:54:27;14.50;;;4.73;;
20449;SDS011;10384;51.940;8.432;2024-01-15T03:56:53;15.30;;;4.80;;
20449;SDS011;10384;51.940;8.432;2024-01-15T03:59:19;11.60;;;4.63;;
20449;SDS011;10384;51.940;8.432;2024-01-15T04:01:48;17.30;;;4.97;;
20449;SDS011;10384;51.940;8.432;2024-01-15T04:04:15;15.90;;;4.80;;
20449;SDS011;10384;51.940;8.432;2024-01-15T04:06:41;16.80;;;4.23;;
20449;SDS011;10384;51.940;8.432;2024-01-15T04:09:07;13.20;;;4.70;;
20449;SDS011;10384;51.940;8.432;2024-01-15T04:11:33;14.53;;;5.20;;
20449;SDS011;10384;51.940;8.432;2024-01-15T04:13:59;15.63;;;5.17;;
20449;SDS011;10384;51.940;8.432;2024-01-15T04:16:25;14.53;;;5.20;;
20449;SDS011;10384;51.940;8.432;2024-01-15T04:18:51;12.43;;;4.77;;
20449;SDS011;10384;51.940;8.432;2024-01-15T04:21:17;11.87;;;4.73;;
20449;SDS011;10384;51.940;8.432;2024-01-15T04:23:43;18.27;;;5.40;;
20449;SDS011;10384;51.940;8.432;2024-01-15T04:26:09;15.47;;;4.50;;
20449;SDS011;10384;51.940;8.432;2024-01-15T04:28:35;13.07;;;4.43;;
20449;SDS011;10384;51.940;8.432;2024-01-15T04:31:01;15.37;;;4.77;;
20449;SDS011;10384;51.940;8.432;2024-01-15T04:33:27;10.87;;;4.37;;
20449;SDS011;10384;51.940;8.432;2024-01-15T04:35:53;13.67;;;4.47;;
20449;SDS011;10384;51.940;8.432;2024-01-15T04:38:19;15.87;;;5.43;;
20449;SDS011;10384;51.940;8.432;2024-01-15T04:40:45;15.90;;;4.40;;
20449;SDS011;10384;51.940;8.432;2024-01-15T04:43:11;13.87;;;5.17;;
20449;SDS011;10384;51.940;8.432;2024-01-15T04:45:37;17.23;;;5.30;;
20449;SDS011;10384;51.940;8.432;2024-01-15T04:48:03;15.40;;;4.93;;
20449;SDS011;10384;51.940;8.432;2024-01-15T04:50:29;17.03;;;5.10;;
20449;SDS011;10384;51.940;8.432;2024-01-15T04:52:55;11.57;;;4.60;;
20449;SDS011;10384;51.940;8.432;2024-01-15T04:55:21;11.70;;;4.47;;
20449;SDS011;10384;51.940;8.432;2024-01-15T04:57:47;11.87;;;4.30;;
20449;SDS011;10384;51.940;8.432;2024-01-15T05:00:13;9.37;;;3.90;;
20449;SDS011;10384;51.940;8.432;2024-01-15T05:02:40;15.33;;;4.73;;
20449;SDS011;10384;51.940;8.432;2024-01-15T05:05:06;12.97;;;5.00;;
20449;SDS011;10384;51.940;8.432;2024-01-15T05:07:32;14.70;;;5.30;;
20449;SDS011;10384;51.940;8.432;2024-01-15T05:09:58;15.67;;;4.80;;
20449;SDS011;10384;51.940;8.432;2024-01-15T05:12:24;13.03;;;4.47;;
20449;SDS011;10384;51.940;8.432;2024-01-15T05:14:50;15.20;;;4.80;;
20449;SDS011;10384;51.940;8.432;2024-01-15T05:17:16;13.87;;;4.23;;
20449;SDS011;10384;51.940;8.432;2024-01-15T05:19:42;15.67;;;5.00;;
20449;SDS011;10384;51.940;8.432;2024-01-15T05:22:08;12.67;;;4.03;;
20449;SDS011;10384;51.940;8.432;2024-01-15T05:24:34;19.27;;;4.77;;
20449;SDS011;10384;51.940;8.432;2024-01-15T05:27:00;15.27;;;4.67;;
20449;SDS011;10384;51.940;8.432;2024-01-15T05:29:25;12.73;;;3.83;;
20449;SDS011;10384;51.940;8.432;2024-01-15T05:31:52;9.77;;;4.00;;
20449;SDS011;10384;51.940;8.432;2024-01-15T05:34:17;10.97;;;3.40;;
20449;SDS011;10384;51.940;8.432;2024-01-15T05:36:43;11.50;;;4.30;;
20449;SDS011;10384;51.940;8.432;2024-01-15T05:39:15;13.40;;;3.87;;
20449;SDS011;10384;51.940;8.432;2024-01-15T05:41:41;11.10;;;4.67;;
20449;SDS011;10384;51.940;8.432;2024-01-15T05:44:07;10.33;;;4.27;;
20449;SDS011;10384;51.940;8.432;2024-01-15T05:46:33;15.93;;;4.03;;
20449;SDS011;10384;51.940;8.432;2024-01-15T05:48:59;9.47;;;3.90;;
20449;SDS011;10384;51.940;8.432;2024-01-15T05:51:25;15.33;;;4.40;;
20449;SDS011;10384;51.940;8.432;2024-01-15T05:53:51;10.20;;;4.00;;
20449;SDS011;10384;51.940;8.432;2024-01-15T05:56:17;9.80;;;4.10;;
20449;SDS011;10384;51.940;8.432;2024-01-15T05:58:43;14.17;;;4.13;;
20449;SDS011;10384;51.940;8.432;2024-01-15T06:01:09;11.27;;;4.00;;
20449;SDS011;10384;51.940;8.432;2024-01-15T06:03:35;12.43;;;4.50;;
20449;SDS011;10384;51.940;8.432;2024-01-15T06:06:01;14.37;;;4.53;;
20449;SDS011;10384;51.940;8.432;2024-01-15T06:08:27;16.20;;;5.70;;
20449;SDS011;10384;51.940;8.432;2024-01-15T06:10:53;13.93;;;4.73;;
20449;SDS011;10384;51.940;8.432;2024-01-15T06:13:19;15.97;;;4.47;;
20449;SDS011;10384;51.940;8.432;2024-01-15T06:15:45;11.50;;;4.67;;
20449;SDS011;10384;51.940;8.432;2024-01-15T06:18:11;11.83;;;4.93;;
20449;SDS011;10384;51.940;8.432;2024-01-15T06:20:37;14.50;;;4.77;;
20449;SDS011;10384;51.940;8.432;2024-01-15T06:23:03;13.13;;;4.83;;
20449;SDS011;10384;51.940;8.432;2024-01-15T06:25:29;14.70;;;4.97;;
20449;SDS011;10384;51.940;8.432;2024-01-15T06:27:55;15.87;;;4.87;;
20449;SDS011;10384;51.940;8.432;2024-01-15T06:30:21;11.80;;;4.63;;
20449;SDS011;10384;51.940;8.432;2024-01-15T06:32:48;11.60;;;4.93;;
20449;SDS011;10384;51.940;8.432;2024-01-15T06:35:14;18.67;;;5.57;;
20449;SDS011;10384;51.940;8.432;2024-01-15T06:37:40;11.60;;;4.73;;
20449;SDS011;10384;51.940;8.432;2024-01-15T06:40:06;17.97;;;4.60;;
20449;SDS011;10384;51.940;8.432;2024-01-15T06:42:32;14.37;;;5.13;;
20449;SDS011;10384;51.940;8.432;2024-01-15T06:44:58;11.23;;;4.63;;
20449;SDS011;10384;51.940;8.432;2024-01-15T06:47:24;15.43;;;4.60;;
20449;SDS011;10384;51.940;8.432;2024-01-15T06:49:50;12.27;;;4.60;;
20449;SDS011;10384;51.940;8.432;2024-01-15T06:52:16;13.23;;;3.90;;
20449;SDS011;10384;51.940;8.432;2024-01-15T06:54:42;13.47;;;5.73;;
20449;SDS011;10384;51.940;8.432;2024-01-15T06:57:08;10.77;;;4.10;;
20449;SDS011;10384;51.940;8.432;2024-01-15T06:59:34;11.63;;;4.30;;
20449;SDS011;10384;51.940;8.432;2024-01-15T07:02:01;10.27;;;4.17;;
20449;SDS011;10384;51.940;8.432;2024-01-15T07:04:27;9.17;;;3.63;;
20449;SDS011;10384;51.940;8.432;2024-01-15T07:06:53;9.80;;;3.53;;
20449;SDS011;10384;51.940;8.432;2024-01-15T07:09:19;10.63;;;3.53;;
20449;SDS011;10384;51.940;8.432;2024-01-15T07:11:45;8.90;;;3.30;;
20449;SDS011;10384;51.940;8.432;2024-01-15T07:14:12;9.67;;;3.70;;
20449;SDS011;10384;51.940;8.432;2024-01-15T07:16:38;8.33;;;3.27;;
20449;SDS011;10384;51.940;8.432;2024-01-15T07:19:04;11.33;;;3.90;;
20449;SDS011;10384;51.940;8.432;2024-01-15T07:21:30;9.00;;;3.37;;
20449;SDS011;10384;51.940;8.432;2024-01-15T07:23:56;9.87;;;3.50;;
20449;SDS011;10384;51.940;8.432;2024-01-15T07:26:22;8.40;;;3.50;;
20449;SDS011;10384;51.940;8.432;2024-01-15T07:28:48;10.67;;;3.17;;
20449;SDS011;10384;51.940;8.432;2024-01-15T07:31:15;7.03;;;3.30;;
20449;SDS011;10384;51.940;8.432;2024-01-15T07:33:41;14.20;;;3.43;;
20449;SDS011;10384;51.940;8.432;2024-01-15T07:36:07;7.30;;;3.27;;
20449;SDS011;10384;51.940;8.432;2024-01-15T07:38:33;12.13;;;3.40;;
20449;SDS011;10384;51.940;8.432;2024-01-15T07:40:59;7.60;;;3.20;;
20449;SDS011;10384;51.940;8.432;2024-01-15T07:43:25;8.97;;;3.57;;
20449;SDS011;10384;51.940;8.432;2024-01-15T07:45:52;7.80;;;3.20;;
20449;SDS011;10384;51.940;8.432;2024-01-15T07:48:18;13.87;;;2.90;;
20449;SDS011;10384;51.940;8.432;2024-01-15T07:50:45;8.43;;;3.10;;
20449;SDS011;10384;51.940;8.432;2024-01-15T07:53:11;7.37;;;3.47;;
20449;SDS011;10384;51.940;8.432;2024-01-15T07:55:37;14.20;;;3.40;;
20449;SDS011;10384;51.940;8.432;2024-01-15T07:58:03;8.20;;;2.63;;
20449;SDS011;10384;51.940;8.432;2024-01-15T08:00:29;10.03;;;3.27;;
20449;SDS011;10384;51.940;8.432;2024-01-15T08:02:55;7.20;;;3.20;;
20449;SDS011;10384;51.940;8.432;2024-01-15T08:05:21;10.47;;;3.20;;
20449;SDS011;10384;51.940;8.432;2024-01-15T08:07:47;7.17;;;3.13;;
20449;SDS011;10384;51.940;8.432;2024-01-15T08:10:13;9.50;;;3.17;;
20449;SDS011;10384;51.940;8.432;2024-01-15T08:12:40;5.73;;;2.97;;
20449;SDS011;10384;51.940;8.432;2024-01-15T08:15:06;8.80;;;3.50;;
20449;SDS011;10384;51.940;8.432;2024-01-15T08:17:32;9.83;;;3.80;;
20449;SDS011;10384;51.940;8.432;2024-01-15T08:19:58;7.53;;;3.00;;
20449;SDS011;10384;51.940;8.432;2024-01-15T08:22:25;8.67;;;3.00;;
20449;SDS011;10384;51.940;8.432;2024-01-15T08:24:51;8.50;;;3.50;;
20449;SDS011;10384;51.940;8.432;2024-01-15T08:27:18;6.50;;;3.03;;
20449;SDS011;10384;51.940;8.432;2024-01-15T08:29:45;6.73;;;3.27;;
20449;SDS011;10384;51.940;8.432;2024-01-15T08:32:11;11.23;;;3.03;;
20449;SDS011;10384;51.940;8.432;2024-01-15T08:34:40;7.70;;;2.90;;
20449;SDS011;10384;51.940;8.432;2024-01-15T08:37:07;5.90;;;2.87;;
20449;SDS011;10384;51.940;8.432;2024-01-15T08:39:33;6.63;;;2.97;;
20449;SDS011;10384;51.940;8.432;2024-01-15T08:41:58;8.03;;;3.00;;
20449;SDS011;10384;51.940;8.432;2024-01-15T08:44:24;6.67;;;2.90;;
20449;SDS011;10384;51.940;8.432;2024-01-15T08:46:50;5.37;;;2.60;;
20449;SDS011;10384;51.940;8.432;2024-01-15T08:49:16;6.63;;;2.90;;
20449;SDS011;10384;51.940;8.432;2024-01-15T08:51:42;6.47;;;2.80;;
20449;SDS011;10384;51.940;8.432;2024-01-15T08:54:08;7.07;;;3.53;;
20449;SDS011;10384;51.940;8.432;2024-01-15T08:56:34;12.17;;;3.60;;
20449;SDS011;10384;51.940;8.432;2024-01-15T08:59:01;6.60;;;3.20;;
20449;SDS011;10384;51.940;8.432;2024-01-15T09:01:27;9.20;;;3.17;;
20449;SDS011;10384;51.940;8.432;2024-01-15T09:03:53;17.60;;;3.93;;
20449;SDS011;10384;51.940;8.432;2024-01-15T09:06:21;14.10;;;3.13;;
20449;SDS011;10384;51.940;8.432;2024-01-15T09:08:47;11.43;;;3.37;;
20449;SDS011;10384;51.940;8.432;2024-01-15T09:11:13;8.23;;;3.40;;
20449;SDS011;10384;51.940;8.432;2024-01-15T09:13:39;7.27;;;3.37;;
20449;SDS011;10384;51.940;8.432;2024-01-15T09:16:05;8.47;;;3.37;;
20449;SDS011;10384;51.940;8.432;2024-01-15T09:18:31;10.30;;;3.63;;
20449;SDS011;10384;51.940;8.432;2024-01-15T09:20:57;15.03;;;3.63;;
20449;SDS011;10384;51.940;8.432;2024-01-15T09:23:23;8.53;;;3.60;;
20449;SDS011;10384;51.940;8.432;2024-01-15T09:25:49;10.17;;;3.43;;
20449;SDS011;10384;51.940;8.432;2024-01-15T09:28:17;9.13;;;3.63;;
20449;SDS011;10384;51.940;8.432;2024-01-15T09:30:43;10.57;;;2.90;;
20449;SDS011;10384;51.940;8.432;2024-01-15T09:33:10;8.57;;;3.10;;
20449;SDS011;10384;51.940;8.432;2024-01-15T09:35:36;9.27;;;3.47;;
20449;SDS011;10384;51.940;8.432;2024-01-15T09:38:02;9.10;;;3.40;;
20449;SDS011;10384;51.940;8.432;2024-01-15T09:40:29;7.13;;;3.70;;
20449;SDS011;10384;51.940;8.432;2024-01-15T09:42:58;9.00;;;2.90;;
20449;SDS011;10384;51.940;8.432;2024-01-15T09:45:24;10.57;;;3.30;;
20449;SDS011;10384;51.940;8.432;2024-01-15T09:47:50;8.37;;;3.07;;
20449;SDS011;10384;51.940;8.432;2024-01-15T09:50:17;8.97;;;2.77;;
20449;SDS011;10384;51.940;8.432;2024-01-15T09:52:43;8.03;;;2.90;;
20449;SDS011;10384;51.940;8.432;2024-01-15T09:55:10;7.43;;;2.70;;
20449;SDS011;10384;51.940;8.432;2024-01-15T09:57:36;8.03;;;2.80;;
20449;SDS011;10384;51.940;8.432;2024-01-15T10:00:03;5.57;;;2.67;;
20449;SDS011;10384;51.940;8.432;2024-01-15T10:02:30;6.37;;;2.87;;
20449;SDS011;10384;51.940;8.432;2024-01-15T10:04:56;6.07;;;2.77;;
20449;SDS011;10384;51.940;8.432;2024-01-15T10:07:22;6.63;;;2.53;;
20449;SDS011;10384;51.940;8.432;2024-01-15T10:09:49;6.33;;;2.50;;
20449;SDS011;10384;51.940;8.432;2024-01-15T10:12:15;6.30;;;2.70;;
20449;SDS011;10384;51.940;8.432;2024-01-15T10:14:41;6.93;;;2.60;;
20449;SDS011;10384;51.940;8.432;2024-01-15T10:17:11;7.23;;;2.70;;
20449;SDS011;10384;51.940;8.432;2024-01-15T10:19:38;5.40;;;2.53;;
20449;SDS011;10384;51.940;8.432;2024-01-15T10:22:06;7.70;;;2.50;;
20449;SDS011;10384;51.940;8.432;2024-01-15T10:24:34;5.57;;;2.97;;
20449;SDS011;10384;51.940;8.432;2024-01-15T10:27:10;4.87;;;2.60;;
20449;SDS011;10384;51.940;8.432;2024-01-15T10:29:36;7.70;;;2.30;;
20449;SDS011;10384;51.940;8.432;2024-01-15T10:32:02;5.77;;;2.40;;
20449;SDS011;10384;51.940;8.432;2024-01-15T10:34:30;8.50;;;2.40;;
20449;SDS011;10384;51.940;8.432;2024-01-15T10:36:56;6.50;;;2.20;;
20449;SDS011;10384;51.940;8.432;2024-01-15T10:39:22;7.27;;;2.30;;
20449;SDS011;10384;51.940;8.432;2024-01-15T10:41:49;4.70;;;2.10;;
20449;SDS011;10384;51.940;8.432;2024-01-15T10:44:16;6.53;;;2.27;;
20449;SDS011;10384;51.940;8.432;2024-01-15T10:46:42;4.93;;;1.97;;
20449;SDS011;10384;51.940;8.432;2024-01-15T10:49:09;6.13;;;2.10;;
20449;SDS011;10384;51.940;8.432;2024-01-15T10:51:35;3.53;;;2.23;;
20449;SDS011;10384;51.940;8.432;2024-01-15T10:54:01;4.50;;;1.97;;
20449;SDS011;10384;51.940;8.432;2024-01-15T10:56:29;6.83;;;2.20;;
20449;SDS011;10384;51.940;8.432;2024-01-15T10:58:55;4.70;;;1.93;;
20449;SDS011;10384;51.940;8.432;2024-01-15T11:01:21;6.20;;;1.93;;
20449;SDS011;10384;51.940;8.432;2024-01-15T11:03:47;7.30;;;2.37;;
20449;SDS011;10384;51.940;8.432;2024-01-15T11:06:17;5.67;;;2.23;;
20449;SDS011;10384;51.940;8.432;2024-01-15T11:08:48;6.60;;;2.07;;
20449;SDS011;10384;51.940;8.432;2024-01-15T11:11:17;5.73;;;1.83;;
20449;SDS011;10384;51.940;8.432;2024-01-15T11:13:43;5.83;;;2.10;;
20449;SDS011;10384;51.940;8.432;2024-01-15T11:16:10;6.87;;;1.97;;
20449;SDS011;10384;51.940;8.432;2024-01-15T11:18:40;9.37;;;2.27;;
20449;SDS011;10384;51.940;8.432;2024-01-15T11:23:46;3.90;;;2.27;;
20449;SDS011;10384;51.940;8.432;2024-01-15T11:26:54;7.40;;;2.37;;
20449;SDS011;10384;51.940;8.432;2024-01-15T11:29:02;4.00;;;1.70;;
20449;SDS011;10384;51.940;8.432;2024-01-15T11:34:10;4.27;;;2.23;;
20449;SDS011;10384;51.940;8.432;2024-01-15T11:41:57;6.70;;;2.10;;
20449;SDS011;10384;51.940;8.432;2024-01-15T11:44:23;8.27;;;2.00;;
20449;SDS011;10384;51.940;8.432;2024-01-15T11:47:07;4.20;;;1.80;;
20449;SDS011;10384;51.940;8.432;2024-01-15T11:52:00;5.97;;;1.90;;
20449;SDS011;10384;51.940;8.432;2024-01-15T11:54:28;3.60;;;1.77;;
20449;SDS011;10384;51.940;8.432;2024-01-15T11:57:00;8.23;;;2.30;;
20449;SDS011;10384;51.940;8.432;2024-01-15T11:59:28;5.33;;;1.63;;
20449;SDS011;10384;51.940;8.432;2024-01-15T12:01:54;3.07;;;1.30;;
20449;SDS011;10384;51.940;8.432;2024-01-15T12:04:20;4.07;;;1.60;;
20449;SDS011;10384;51.940;8.432;2024-01-15T12:06:46;6.53;;;2.00;;
20449;SDS011;10384;51.940;8.432;2024-01-15T12:09:12;6.03;;;1.80;;
20449;SDS011;10384;51.940;8.432;2024-01-15T12:11:38;7.53;;;1.80;;
20449;SDS011;10384;51.940;8.432;2024-01-15T12:14:07;2.07;;;1.40;;
20449;SDS011;10384;51.940;8.432;2024-01-15T12:16:33;8.53;;;1.43;;
20449;SDS011;10384;51.940;8.432;2024-01-15T12:18:59;5.70;;;1.50;;
20449;SDS011;10384;51.940;8.432;2024-01-15T12:21:28;6.23;;;1.87;;
20449;SDS011;10384;51.940;8.432;2024-01-15T12:23:55;6.77;;;1.60;;
20449;SDS011;10384;51.940;8.432;2024-01-15T12:26:21;4.83;;;1.50;;
20449;SDS011;10384;51.940;8.432;2024-01-15T12:28:49;4.47;;;1.30;;
20449;SDS011;10384;51.940;8.432;2024-01-15T12:31:16;5.73;;;1.50;;
20449;SDS011;10384;51.940;8.432;2024-01-15T12:33:42;2.90;;;1.30;;
20449;SDS011;10384;51.940;8.432;2024-01-15T12:36:08;8.73;;;1.90;;
20449;SDS011;10384;51.940;8.432;2024-01-15T12:38:34;4.60;;;1.80;;
20449;SDS011;10384;51.940;8.432;2024-01-15T12:41:00;4.47;;;1.40;;
20449;SDS011;10384;51.940;8.432;2024-01-15T12:43:26;6.60;;;2.00;;
20449;SDS011;10384;51.940;8.432;2024-01-15T12:45:52;3.33;;;1.30;;
20449;SDS011;10384;51.940;8.432;2024-01-15T12:48:18;1.87;;;1.30;;
20449;SDS011;10384;51.940;8.432;2024-01-15T12:50:44;6.67;;;1.47;;
20449;SDS011;10384;51.940;8.432;2024-01-15T12:53:12;7.53;;;1.30;;
20449;SDS011;10384;51.940;8.432;2024-01-15T12:55:38;2.57;;;1.10;;
20449;SDS011;10384;51.940;8.432;2024-01-15T12:58:04;3.63;;;1.17;;
20449;SDS011;10384;51.940;8.432;2024-01-15T13:00:30;2.10;;;1.17;;
20449;SDS011;10384;51.940;8.432;2024-01-15T13:02:56;2.20;;;1.27;;
20449;SDS011;10384;51.940;8.432;2024-01-15T13:05:22;5.30;;;1.47;;
20449;SDS011;10384;51.940;8.432;2024-01-15T13:07:48;5.27;;;1.40;;
20449;SDS011;10384;51.940;8.432;2024-01-15T13:10:14;2.57;;;1.23;;
20449;SDS011;10384;51.940;8.432;2024-01-15T13:12:40;7.27;;;1.37;;
20449;SDS011;10384;51.940;8.432;2024-01-15T13:15:06;3.53;;;1.50;;
20449;SDS011;10384;51.940;8.432;2024-01-15T13:17:36;3.90;;;1.50;;
20449;SDS011;10384;51.940;8.432;2024-01-15T13:20:02;3.90;;;1.30;;
20449;SDS011;10384;51.940;8.432;2024-01-15T13:22:28;6.50;;;1.40;;
20449;SDS011;10384;51.940;8.432;2024-01-15T13:24:57;5.50;;;1.20;;
20449;SDS011;10384;51.940;8.432;2024-01-15T13:27:23;8.20;;;1.57;;
20449;SDS011;10384;51.940;8.432;2024-01-15T13:29:50;6.90;;;1.83;;
20449;SDS011;10384;51.940;8.432;2024-01-15T13:32:17;4.90;;;1.57;;
20449;SDS011;10384;51.940;8.432;2024-01-15T13:34:46;2.27;;;0.90;;
20449;SDS011;10384;51.940;8.432;2024-01-15T13:37:12;3.73;;;1.70;;
20449;SDS011;10384;51.940;8.432;2024-01-15T13:39:38;5.83;;;1.30;;
20449;SDS011;10384;51.940;8.432;2024-01-15T13:42:04;3.53;;;1.40;;
20449;SDS011;10384;51.940;8.432;2024-01-15T13:44:30;3.63;;;1.33;;
20449;SDS011;10384;51.940;8.432;2024-01-15T13:46:55;6.83;;;1.40;;
20449;SDS011;10384;51.940;8.432;2024-01-15T13:49:22;8.93;;;2.10;;
20449;SDS011;10384;51.940;8.432;2024-01-15T13:51:49;3.33;;;1.10;;
20449;SDS011;10384;51.940;8.432;2024-01-15T13:54:15;4.40;;;1.30;;
20449;SDS011;10384;51.940;8.432;2024-01-15T13:56:41;2.47;;;1.20;;
20449;SDS011;10384;51.940;8.432;2024-01-15T13:59:08;3.17;;;1.40;;
20449;SDS011;10384;51.940;8.432;2024-01-15T14:01:34;4.60;;;1.50;;
20449;SDS011;10384;51.940;8.432;2024-01-15T14:04:00;4.73;;;1.40;;
20449;SDS011;10384;51.940;8.432;2024-01-15T14:06:26;3.10;;;1.47;;
20449;SDS011;10384;51.940;8.432;2024-01-15T14:08:52;3.37;;;1.60;;
20449;SDS011;10384;51.940;8.432;2024-01-15T14:11:18;10.83;;;1.43;;
20449;SDS011;10384;51.940;8.432;2024-01-15T14:13:44;4.43;;;1.47;;
20449;SDS011;10384;51.940;8.432;2024-01-15T14:16:10;3.90;;;1.40;;
20449;SDS011;10384;51.940;8.432;2024-01-15T14:18:36;4.10;;;1.60;;
20449;SDS011;10384;51.940;8.432;2024-01-15T14:21:02;3.33;;;1.10;;
20449;SDS011;10384;51.940;8.432;2024-01-15T14:23:28;4.27;;;1.50;;
20449;SDS011;10384;51.940;8.432;2024-01-15T14:25:54;2.93;;;1.20;;
20449;SDS011;10384;51.940;8.432;2024-01-15T14:28:20;5.70;;;1.60;;
20449;SDS011;10384;51.940;8.432;2024-01-15T14:30:48;2.70;;;1.03;;
20449;SDS011;10384;51.940;8.432;2024-01-15T14:33:14;4.23;;;1.40;;
20449;SDS011;10384;51.940;8.432;2024-01-15T14:35:40;5.00;;;1.47;;
20449;SDS011;10384;51.940;8.432;2024-01-15T14:38:06;6.63;;;1.67;;
20449;SDS011;10384;51.940;8.432;2024-01-15T14:40:32;4.83;;;1.27;;
20449;SDS011;10384;51.940;8.432;2024-01-15T14:42:58;12.33;;;1.40;;
20449;SDS011;10384;51.940;8.432;2024-01-15T14:45:24;3.77;;;1.60;;
20449;SDS011;10384;51.940;8.432;2024-01-15T14:47:52;2.70;;;1.37;;